sensor_id;sensor_type;location;lat;lon;timestamp;P1;durP1;ratioP1;P2;durP2;ratioP2
46348;SDS011;32057;47.830;19.046;2022-12-07T00:00:53;3.25;;;2.78;;
46348;SDS011;32057;47.830;19.046;2022-12-07T00:03:19;4.88;;;2.72;;
46348;SDS011;32057;47.830;19.046;2022-12-07T00:05:45;2.97;;;2.65;;
46348;SDS011;32057;47.830;19.046;2022-12-07T00:08:10;2.95;;;2.75;;
46348;SDS011;32057;47.830;19.046;2022-12-07T00:10:36;3.30;;;3.00;;
46348;SDS011;32057;47.830;19.046;2022-12-07T00:13:01;2.97;;;2.28;;
46348;SDS011;32057;47.830;19.046;2022-12-07T00:15:26;3.95;;;2.58;;
46348;SDS011;32057;47.830;19.046;2022-12-07T00:17:52;3.65;;;2.30;;
46348;SDS011;32057;47.830;19.046;2022-12-07T00:20:17;7.85;;;3.10;;
46348;SDS011;32057;47.830;19.046;2022-12-07T00:22:42;3.40;;;3.08;;
46348;SDS011;32057;47.830;19.046;2022-12-07T00:25:08;3.45;;;2.40;;
46348;SDS011;32057;47.830;19.046;2022-12-07T00:27:33;12.00;;;5.40;;
46348;SDS011;32057;47.830;19.046;2022-12-07T00:29:59;4.60;;;2.65;;
46348;SDS011;32057;47.830;19.046;2022-12-07T00:32:24;2.60;;;2.40;;
46348;SDS011;32057;47.830;19.046;2022-12-07T00:34:49;2.15;;;1.70;;
46348;SDS011;32057;47.830;19.046;2022-12-07T00:37:15;4.88;;;1.90;;
46348;SDS011;32057;47.830;19.046;2022-12-07T00:39:40;2.30;;;2.10;;
46348;SDS011;32057;47.830;19.046;2022-12-07T00:42:05;2.22;;;2.03;;
46348;SDS011;32057;47.830;19.046;2022-12-07T00:44:31;2.50;;;2.30;;
46348;SDS011;32057;47.830;19.046;2022-12-07T00:46:56;3.85;;;2.28;;
46348;SDS011;32057;47.830;19.046;2022-12-07T00:49:22;3.45;;;2.42;;
46348;SDS011;32057;47.830;19.046;2022-12-07T00:51:48;2.85;;;2.60;;
46348;SDS011;32057;47.830;19.046;2022-12-07T00:54:14;4.10;;;2.63;;
46348;SDS011;32057;47.830;19.046;2022-12-07T00:56:39;2.28;;;1.70;;
46348;SDS011;32057;47.830;19.046;2022-12-07T00:59:05;2.72;;;2.42;;
46348;SDS011;32057;47.830;19.046;2022-12-07T01:01:32;4.57;;;1.70;;
46348;SDS011;32057;47.830;19.046;2022-12-07T01:03:59;3.08;;;1.75;;
46348;SDS011;32057;47.830;19.046;2022-12-07T01:06:28;4.20;;;2.97;;
46348;SDS011;32057;47.830;19.046;2022-12-07T01:08:54;2.80;;;1.90;;
46348;SDS011;32057;47.830;19.046;2022-12-07T01:11:21;3.00;;;2.15;;
46348;SDS011;32057;47.830;19.046;2022-12-07T01:13:52;1.85;;;1.75;;
46348;SDS011;32057;47.830;19.046;2022-12-07T01:16:20;2.17;;;1.98;;
46348;SDS011;32057;47.830;19.046;2022-12-07T01:18:47;2.75;;;1.98;;
46348;SDS011;32057;47.830;19.046;2022-12-07T01:21:15;2.40;;;1.98;;
46348;SDS011;32057;47.830;19.046;2022-12-07T01:23:44;2.55;;;2.35;;
46348;SDS011;32057;47.830;19.046;2022-12-07T01:26:10;4.97;;;3.47;;
46348;SDS011;32057;47.830;19.046;2022-12-07T01:28:37;4.13;;;3.05;;
46348;SDS011;32057;47.830;19.046;2022-12-07T01:33:42;3.70;;;2.80;;
46348;SDS011;32057;47.830;19.046;2022-12-07T01:36:13;5.55;;;3.30;;
46348;SDS011;32057;47.830;19.046;2022-12-07T01:38:39;3.97;;;3.25;;
46348;SDS011;32057;47.830;19.046;2022-12-07T01:41:05;3.58;;;2.85;;
46348;SDS011;32057;47.830;19.046;2022-12-07T01:43:31;4.13;;;3.28;;
46348;SDS011;32057;47.830;19.046;2022-12-07T01:45:57;2.75;;;2.33;;
46348;SDS011;32057;47.830;19.046;2022-12-07T01:48:45;10.38;;;3.88;;
46348;SDS011;32057;47.830;19.046;2022-12-07T01:51:10;3.13;;;2.83;;
46348;SDS011;32057;47.830;19.046;2022-12-07T01:53:39;13.63;;;4.85;;
46348;SDS011;32057;47.830;19.046;2022-12-07T01:56:11;4.57;;;3.08;;
46348;SDS011;32057;47.830;19.046;2022-12-07T01:58:43;4.32;;;2.95;;
46348;SDS011;32057;47.830;19.046;2022-12-07T02:01:10;2.85;;;2.40;;
46348;SDS011;32057;47.830;19.046;2022-12-07T02:03:39;2.83;;;2.58;;
46348;SDS011;32057;47.830;19.046;2022-12-07T02:06:07;3.20;;;2.70;;
46348;SDS011;32057;47.830;19.046;2022-12-07T02:08:35;3.15;;;2.72;;
46348;SDS011;32057;47.830;19.046;2022-12-07T02:11:04;2.72;;;2.28;;
46348;SDS011;32057;47.830;19.046;2022-12-07T02:13:33;3.72;;;2.75;;
46348;SDS011;32057;47.830;19.046;2022-12-07T02:29:56;2.38;;;2.17;;
46348;SDS011;32057;47.830;19.046;2022-12-07T02:35:12;2.45;;;2.00;;
46348;SDS011;32057;47.830;19.046;2022-12-07T02:37:52;4.45;;;3.08;;
46348;SDS011;32057;47.830;19.046;2022-12-07T02:40:29;3.75;;;3.10;;
46348;SDS011;32057;47.830;19.046;2022-12-07T02:43:02;4.10;;;3.63;;
46348;SDS011;32057;47.830;19.046;2022-12-07T02:45:32;3.95;;;2.88;;
46348;SDS011;32057;47.830;19.046;2022-12-07T02:47:59;2.97;;;2.65;;
46348;SDS011;32057;47.830;19.046;2022-12-07T02:50:27;4.10;;;2.97;;
46348;SDS011;32057;47.830;19.046;2022-12-07T02:52:53;4.07;;;2.55;;
46348;SDS011;32057;47.830;19.046;2022-12-07T02:55:19;2.90;;;2.17;;
46348;SDS011;32057;47.830;19.046;2022-12-07T03:00:17;2.75;;;2.50;;
46348;SDS011;32057;47.830;19.046;2022-12-07T03:07:52;5.43;;;3.38;;
46348;SDS011;32057;47.830;19.046;2022-12-07T03:15:43;3.13;;;2.83;;
46348;SDS011;32057;47.830;19.046;2022-12-07T03:18:10;5.15;;;3.97;;
46348;SDS011;32057;47.830;19.046;2022-12-07T03:20:40;5.53;;;3.75;;
46348;SDS011;32057;47.830;19.046;2022-12-07T03:23:09;4.95;;;2.85;;
46348;SDS011;32057;47.830;19.046;2022-12-07T03:25:38;3.25;;;2.95;;
46348;SDS011;32057;47.830;19.046;2022-12-07T03:28:09;5.88;;;3.90;;
46348;SDS011;32057;47.830;19.046;2022-12-07T03:30:39;2.80;;;2.38;;
46348;SDS011;32057;47.830;19.046;2022-12-07T03:33:10;3.65;;;3.03;;
46348;SDS011;32057;47.830;19.046;2022-12-07T03:35:42;4.90;;;3.38;;
46348;SDS011;32057;47.830;19.046;2022-12-07T03:43:14;3.17;;;2.88;;
46348;SDS011;32057;47.830;19.046;2022-12-07T03:45:42;2.83;;;2.60;;
46348;SDS011;32057;47.830;19.046;2022-12-07T03:51:33;2.47;;;2.17;;
46348;SDS011;32057;47.830;19.046;2022-12-07T03:54:09;6.13;;;2.80;;
46348;SDS011;32057;47.830;19.046;2022-12-07T03:56:42;3.17;;;2.40;;
46348;SDS011;32057;47.830;19.046;2022-12-07T03:59:10;3.55;;;2.53;;
46348;SDS011;32057;47.830;19.046;2022-12-07T04:01:37;2.58;;;2.13;;
46348;SDS011;32057;47.830;19.046;2022-12-07T04:04:03;2.42;;;2.22;;
46348;SDS011;32057;47.830;19.046;2022-12-07T04:06:28;2.70;;;2.28;;
46348;SDS011;32057;47.830;19.046;2022-12-07T04:08:54;5.05;;;3.55;;
46348;SDS011;32057;47.830;19.046;2022-12-07T04:11:19;2.50;;;2.28;;
46348;SDS011;32057;47.830;19.046;2022-12-07T04:13:44;3.67;;;2.70;;
46348;SDS011;32057;47.830;19.046;2022-12-07T04:16:33;2.40;;;1.80;;
46348;SDS011;32057;47.830;19.046;2022-12-07T04:18:58;3.45;;;2.42;;
46348;SDS011;32057;47.830;19.046;2022-12-07T04:21:24;7.25;;;3.75;;
46348;SDS011;32057;47.830;19.046;2022-12-07T04:23:49;4.32;;;2.38;;
46348;SDS011;32057;47.830;19.046;2022-12-07T04:26:14;3.70;;;2.38;;
46348;SDS011;32057;47.830;19.046;2022-12-07T04:28:40;2.25;;;2.13;;
46348;SDS011;32057;47.830;19.046;2022-12-07T04:31:05;2.83;;;2.47;;
46348;SDS011;32057;47.830;19.046;2022-12-07T04:33:31;3.15;;;2.60;;
46348;SDS011;32057;47.830;19.046;2022-12-07T04:35:56;2.65;;;2.45;;
46348;SDS011;32057;47.830;19.046;2022-12-07T04:38:21;3.20;;;2.45;;
46348;SDS011;32057;47.830;19.046;2022-12-07T04:40:47;3.95;;;2.58;;
46348;SDS011;32057;47.830;19.046;2022-12-07T04:43:12;3.97;;;3.28;;
46348;SDS011;32057;47.830;19.046;2022-12-07T04:45:38;2.63;;;2.42;;
46348;SDS011;32057;47.830;19.046;2022-12-07T04:48:03;2.72;;;2.45;;
46348;SDS011;32057;47.830;19.046;2022-12-07T04:50:28;3.10;;;2.88;;
46348;SDS011;32057;47.830;19.046;2022-12-07T04:52:54;4.07;;;2.90;;
46348;SDS011;32057;47.830;19.046;2022-12-07T04:55:19;2.33;;;2.17;;
46348;SDS011;32057;47.830;19.046;2022-12-07T04:57:45;2.92;;;2.35;;
46348;SDS011;32057;47.830;19.046;2022-12-07T05:00:10;2.38;;;2.22;;
46348;SDS011;32057;47.830;19.046;2022-12-07T05:02:36;4.22;;;3.92;;
46348;SDS011;32057;47.830;19.046;2022-12-07T05:05:01;3.47;;;3.17;;
46348;SDS011;32057;47.830;19.046;2022-12-07T05:07:27;3.15;;;2.08;;
46348;SDS011;32057;47.830;19.046;2022-12-07T05:09:52;3.78;;;2.53;;
46348;SDS011;32057;47.830;19.046;2022-12-07T05:12:17;3.90;;;2.78;;
46348;SDS011;32057;47.830;19.046;2022-12-07T05:14:43;3.42;;;2.80;;
46348;SDS011;32057;47.830;19.046;2022-12-07T05:17:08;5.22;;;3.35;;
46348;SDS011;32057;47.830;19.046;2022-12-07T05:19:34;2.72;;;2.35;;
46348;SDS011;32057;47.830;19.046;2022-12-07T05:21:59;4.97;;;3.67;;
46348;SDS011;32057;47.830;19.046;2022-12-07T05:24:24;2.75;;;2.53;;
46348;SDS011;32057;47.830;19.046;2022-12-07T05:26:50;3.65;;;2.40;;
46348;SDS011;32057;47.830;19.046;2022-12-07T05:29:15;3.60;;;2.33;;
46348;SDS011;32057;47.830;19.046;2022-12-07T05:31:42;3.53;;;2.92;;
46348;SDS011;32057;47.830;19.046;2022-12-07T05:34:08;3.38;;;3.08;;
46348;SDS011;32057;47.830;19.046;2022-12-07T05:36:36;4.63;;;3.75;;
46348;SDS011;32057;47.830;19.046;2022-12-07T05:39:01;3.40;;;3.10;;
46348;SDS011;32057;47.830;19.046;2022-12-07T05:41:27;3.10;;;2.70;;
46348;SDS011;32057;47.830;19.046;2022-12-07T05:44:11;3.20;;;2.95;;
46348;SDS011;32057;47.830;19.046;2022-12-07T05:46:36;2.70;;;2.53;;
46348;SDS011;32057;47.830;19.046;2022-12-07T05:49:02;2.65;;;2.42;;
46348;SDS011;32057;47.830;19.046;2022-12-07T05:51:27;3.78;;;3.15;;
46348;SDS011;32057;47.830;19.046;2022-12-07T05:53:53;5.03;;;3.55;;
46348;SDS011;32057;47.830;19.046;2022-12-07T05:56:18;3.22;;;2.35;;
46348;SDS011;32057;47.830;19.046;2022-12-07T05:58:44;3.35;;;3.05;;
46348;SDS011;32057;47.830;19.046;2022-12-07T06:01:28;7.13;;;4.30;;
46348;SDS011;32057;47.830;19.046;2022-12-07T06:03:53;3.78;;;3.42;;
46348;SDS011;32057;47.830;19.046;2022-12-07T06:06:18;5.63;;;3.08;;
46348;SDS011;32057;47.830;19.046;2022-12-07T06:08:44;4.03;;;3.38;;
46348;SDS011;32057;47.830;19.046;2022-12-07T06:11:09;9.52;;;4.78;;
46348;SDS011;32057;47.830;19.046;2022-12-07T06:13:53;10.55;;;5.45;;
46348;SDS011;32057;47.830;19.046;2022-12-07T06:16:18;7.40;;;4.97;;
46348;SDS011;32057;47.830;19.046;2022-12-07T06:18:44;8.00;;;5.63;;
46348;SDS011;32057;47.830;19.046;2022-12-07T06:21:09;7.47;;;5.88;;
46348;SDS011;32057;47.830;19.046;2022-12-07T06:23:35;10.75;;;7.35;;
46348;SDS011;32057;47.830;19.046;2022-12-07T06:26:00;8.55;;;5.43;;
46348;SDS011;32057;47.830;19.046;2022-12-07T06:28:25;5.97;;;5.00;;
46348;SDS011;32057;47.830;19.046;2022-12-07T06:30:57;13.32;;;6.32;;
46348;SDS011;32057;47.830;19.046;2022-12-07T06:33:24;9.05;;;6.43;;
46348;SDS011;32057;47.830;19.046;2022-12-07T06:35:49;9.82;;;6.93;;
46348;SDS011;32057;47.830;19.046;2022-12-07T06:38:15;7.18;;;5.22;;
46348;SDS011;32057;47.830;19.046;2022-12-07T06:40:40;6.97;;;5.90;;
46348;SDS011;32057;47.830;19.046;2022-12-07T06:43:05;8.85;;;6.57;;
46348;SDS011;32057;47.830;19.046;2022-12-07T06:45:31;9.88;;;6.75;;
46348;SDS011;32057;47.830;19.046;2022-12-07T06:47:56;5.85;;;4.97;;
46348;SDS011;32057;47.830;19.046;2022-12-07T06:50:21;5.68;;;4.38;;
46348;SDS011;32057;47.830;19.046;2022-12-07T06:52:47;8.38;;;5.25;;
46348;SDS011;32057;47.830;19.046;2022-12-07T06:55:12;4.72;;;3.72;;
46348;SDS011;32057;47.830;19.046;2022-12-07T06:57:38;5.93;;;4.60;;
46348;SDS011;32057;47.830;19.046;2022-12-07T07:00:03;5.53;;;4.00;;
46348;SDS011;32057;47.830;19.046;2022-12-07T07:02:29;5.53;;;4.25;;
46348;SDS011;32057;47.830;19.046;2022-12-07T07:04:55;5.82;;;4.20;;
46348;SDS011;32057;47.830;19.046;2022-12-07T07:07:20;5.90;;;3.85;;
46348;SDS011;32057;47.830;19.046;2022-12-07T07:09:45;8.15;;;4.22;;
46348;SDS011;32057;47.830;19.046;2022-12-07T07:12:11;9.90;;;5.55;;
46348;SDS011;32057;47.830;19.046;2022-12-07T07:14:36;8.00;;;5.00;;
46348;SDS011;32057;47.830;19.046;2022-12-07T07:17:01;10.05;;;5.97;;
46348;SDS011;32057;47.830;19.046;2022-12-07T07:19:27;10.80;;;6.40;;
46348;SDS011;32057;47.830;19.046;2022-12-07T07:21:52;8.85;;;5.53;;
46348;SDS011;32057;47.830;19.046;2022-12-07T07:24:18;9.20;;;5.55;;
46348;SDS011;32057;47.830;19.046;2022-12-07T07:26:43;16.83;;;9.63;;
46348;SDS011;32057;47.830;19.046;2022-12-07T07:29:09;22.45;;;13.18;;
46348;SDS011;32057;47.830;19.046;2022-12-07T07:31:34;13.32;;;9.63;;
46348;SDS011;32057;47.830;19.046;2022-12-07T07:34:00;12.85;;;11.55;;
46348;SDS011;32057;47.830;19.046;2022-12-07T07:36:26;14.85;;;10.13;;
46348;SDS011;32057;47.830;19.046;2022-12-07T07:38:51;9.05;;;7.85;;
46348;SDS011;32057;47.830;19.046;2022-12-07T07:41:17;5.57;;;5.07;;
46348;SDS011;32057;47.830;19.046;2022-12-07T07:43:43;6.30;;;4.95;;
46348;SDS011;32057;47.830;19.046;2022-12-07T07:46:08;5.88;;;3.72;;
46348;SDS011;32057;47.830;19.046;2022-12-07T07:48:33;3.70;;;3.25;;
46348;SDS011;32057;47.830;19.046;2022-12-07T07:50:59;4.55;;;3.25;;
46348;SDS011;32057;47.830;19.046;2022-12-07T07:53:24;5.03;;;3.90;;
46348;SDS011;32057;47.830;19.046;2022-12-07T07:55:50;3.60;;;3.25;;
46348;SDS011;32057;47.830;19.046;2022-12-07T07:58:17;5.72;;;4.13;;
46348;SDS011;32057;47.830;19.046;2022-12-07T08:00:42;4.50;;;3.40;;
46348;SDS011;32057;47.830;19.046;2022-12-07T08:03:08;5.38;;;4.30;;
46348;SDS011;32057;47.830;19.046;2022-12-07T08:05:33;8.63;;;3.78;;
46348;SDS011;32057;47.830;19.046;2022-12-07T08:07:59;4.82;;;3.83;;
46348;SDS011;32057;47.830;19.046;2022-12-07T08:10:24;3.92;;;3.05;;
46348;SDS011;32057;47.830;19.046;2022-12-07T08:12:49;3.72;;;2.45;;
46348;SDS011;32057;47.830;19.046;2022-12-07T08:15:33;2.33;;;2.00;;
46348;SDS011;32057;47.830;19.046;2022-12-07T08:18:02;3.10;;;2.90;;
46348;SDS011;32057;47.830;19.046;2022-12-07T08:20:29;4.97;;;3.92;;
46348;SDS011;32057;47.830;19.046;2022-12-07T08:22:56;3.03;;;2.75;;
46348;SDS011;32057;47.830;19.046;2022-12-07T08:25:21;3.47;;;2.45;;
46348;SDS011;32057;47.830;19.046;2022-12-07T08:27:47;2.92;;;2.10;;
46348;SDS011;32057;47.830;19.046;2022-12-07T08:30:13;2.55;;;1.92;;
46348;SDS011;32057;47.830;19.046;2022-12-07T08:32:39;3.65;;;2.80;;
46348;SDS011;32057;47.830;19.046;2022-12-07T08:35:04;2.75;;;2.25;;
46348;SDS011;32057;47.830;19.046;2022-12-07T08:37:30;2.40;;;2.20;;
46348;SDS011;32057;47.830;19.046;2022-12-07T08:39:56;3.90;;;2.17;;
46348;SDS011;32057;47.830;19.046;2022-12-07T08:42:22;3.78;;;3.45;;
46348;SDS011;32057;47.830;19.046;2022-12-07T08:44:52;2.25;;;2.08;;
46348;SDS011;32057;47.830;19.046;2022-12-07T08:47:18;3.45;;;2.50;;
46348;SDS011;32057;47.830;19.046;2022-12-07T08:49:44;4.32;;;2.92;;
46348;SDS011;32057;47.830;19.046;2022-12-07T08:52:14;3.92;;;2.80;;
46348;SDS011;32057;47.830;19.046;2022-12-07T08:54:40;3.05;;;2.17;;
46348;SDS011;32057;47.830;19.046;2022-12-07T08:57:07;1.98;;;1.88;;
46348;SDS011;32057;47.830;19.046;2022-12-07T08:59:33;4.72;;;2.78;;
46348;SDS011;32057;47.830;19.046;2022-12-07T09:02:00;1.98;;;1.80;;
46348;SDS011;32057;47.830;19.046;2022-12-07T09:04:26;3.67;;;2.58;;
46348;SDS011;32057;47.830;19.046;2022-12-07T09:06:51;3.58;;;2.53;;
46348;SDS011;32057;47.830;19.046;2022-12-07T09:09:19;5.30;;;2.33;;
46348;SDS011;32057;47.830;19.046;2022-12-07T09:11:44;5.35;;;3.30;;
46348;SDS011;32057;47.830;19.046;2022-12-07T09:14:10;2.30;;;2.10;;
46348;SDS011;32057;47.830;19.046;2022-12-07T09:16:35;2.30;;;2.15;;
46348;SDS011;32057;47.830;19.046;2022-12-07T09:19:01;3.38;;;2.70;;
46348;SDS011;32057;47.830;19.046;2022-12-07T09:21:26;2.70;;;2.50;;
46348;SDS011;32057;47.830;19.046;2022-12-07T09:23:52;2.88;;;2.33;;
46348;SDS011;32057;47.830;19.046;2022-12-07T09:26:17;3.03;;;2.05;;
46348;SDS011;32057;47.830;19.046;2022-12-07T09:28:43;3.38;;;2.60;;
46348;SDS011;32057;47.830;19.046;2022-12-07T09:31:08;3.13;;;2.45;;
46348;SDS011;32057;47.830;19.046;2022-12-07T09:33:33;7.45;;;2.03;;
46348;SDS011;32057;47.830;19.046;2022-12-07T09:35:59;4.38;;;2.53;;
46348;SDS011;32057;47.830;19.046;2022-12-07T09:38:24;2.92;;;2.30;;
46348;SDS011;32057;47.830;19.046;2022-12-07T09:40:51;2.50;;;2.30;;
46348;SDS011;32057;47.830;19.046;2022-12-07T09:43:18;3.10;;;2.38;;
46348;SDS011;32057;47.830;19.046;2022-12-07T09:45:47;4.18;;;2.33;;
46348;SDS011;32057;47.830;19.046;2022-12-07T09:48:16;3.22;;;2.55;;
46348;SDS011;32057;47.830;19.046;2022-12-07T09:50:44;2.03;;;1.83;;
46348;SDS011;32057;47.830;19.046;2022-12-07T09:55:51;1.42;;;1.33;;
46348;SDS011;32057;47.830;19.046;2022-12-07T09:58:19;2.03;;;1.45;;
46348;SDS011;32057;47.830;19.046;2022-12-07T10:00:49;1.90;;;1.70;;
46348;SDS011;32057;47.830;19.046;2022-12-07T10:03:17;2.40;;;2.20;;
46348;SDS011;32057;47.830;19.046;2022-12-07T10:05:44;2.35;;;1.90;;
46348;SDS011;32057;47.830;19.046;2022-12-07T10:08:13;2.05;;;1.95;;
46348;SDS011;32057;47.830;19.046;2022-12-07T10:10:40;2.63;;;2.38;;
46348;SDS011;32057;47.830;19.046;2022-12-07T10:13:13;2.60;;;2.40;;
46348;SDS011;32057;47.830;19.046;2022-12-07T10:18:20;2.08;;;1.77;;
46348;SDS011;32057;47.830;19.046;2022-12-07T10:23:34;2.85;;;2.58;;
46348;SDS011;32057;47.830;19.046;2022-12-07T10:26:20;2.00;;;1.80;;
46348;SDS011;32057;47.830;19.046;2022-12-07T10:28:55;4.28;;;2.90;;
46348;SDS011;32057;47.830;19.046;2022-12-07T10:31:23;2.83;;;2.28;;
46348;SDS011;32057;47.830;19.046;2022-12-07T10:33:53;4.13;;;2.10;;
46348;SDS011;32057;47.830;19.046;2022-12-07T10:38:50;2.60;;;2.40;;
46348;SDS011;32057;47.830;19.046;2022-12-07T10:41:28;3.00;;;1.90;;
46348;SDS011;32057;47.830;19.046;2022-12-07T10:43:55;4.22;;;2.65;;
46348;SDS011;32057;47.830;19.046;2022-12-07T10:51:52;2.15;;;2.00;;
46348;SDS011;32057;47.830;19.046;2022-12-07T10:54:43;2.55;;;2.22;;
46348;SDS011;32057;47.830;19.046;2022-12-07T11:00:11;2.40;;;2.20;;
46348;SDS011;32057;47.830;19.046;2022-12-07T11:16:59;2.80;;;2.22;;
46348;SDS011;32057;47.830;19.046;2022-12-07T11:22:38;2.55;;;2.22;;
46348;SDS011;32057;47.830;19.046;2022-12-07T11:25:24;1.50;;;1.40;;
46348;SDS011;32057;47.830;19.046;2022-12-07T11:30:57;1.60;;;1.50;;
46348;SDS011;32057;47.830;19.046;2022-12-07T11:36:33;4.28;;;2.38;;
46348;SDS011;32057;47.830;19.046;2022-12-07T11:39:15;4.23;;;2.33;;
46348;SDS011;32057;47.830;19.046;2022-12-07T11:41:50;2.40;;;2.20;;
46348;SDS011;32057;47.830;19.046;2022-12-07T11:44:30;3.67;;;2.85;;
46348;SDS011;32057;47.830;19.046;2022-12-07T11:55:00;2.45;;;1.77;;
46348;SDS011;32057;47.830;19.046;2022-12-07T11:57:37;1.83;;;1.58;;
46348;SDS011;32057;47.830;19.046;2022-12-07T12:00:12;2.22;;;2.03;;
46348;SDS011;32057;47.830;19.046;2022-12-07T12:05:29;2.47;;;2.38;;
46348;SDS011;32057;47.830;19.046;2022-12-07T12:10:45;2.13;;;1.85;;
46348;SDS011;32057;47.830;19.046;2022-12-07T12:16:11;3.38;;;2.25;;
46348;SDS011;32057;47.830;19.046;2022-12-07T12:21:28;2.10;;;1.90;;
46348;SDS011;32057;47.830;19.046;2022-12-07T12:24:05;2.95;;;2.55;;
46348;SDS011;32057;47.830;19.046;2022-12-07T12:26:48;3.08;;;2.58;;
46348;SDS011;32057;47.830;19.046;2022-12-07T12:29:21;1.92;;;1.83;;
46348;SDS011;32057;47.830;19.046;2022-12-07T12:35:03;1.85;;;1.40;;
46348;SDS011;32057;47.830;19.046;2022-12-07T12:37:48;2.45;;;1.83;;
46348;SDS011;32057;47.830;19.046;2022-12-07T12:42:47;3.33;;;3.03;;
46348;SDS011;32057;47.830;19.046;2022-12-07T12:45:21;3.13;;;1.60;;
46348;SDS011;32057;47.830;19.046;2022-12-07T12:50:27;3.17;;;2.20;;
46348;SDS011;32057;47.830;19.046;2022-12-07T12:55:57;3.53;;;2.08;;
46348;SDS011;32057;47.830;19.046;2022-12-07T12:58:40;3.42;;;2.03;;
46348;SDS011;32057;47.830;19.046;2022-12-07T13:04:00;1.43;;;1.33;;
46348;SDS011;32057;47.830;19.046;2022-12-07T13:08:52;2.53;;;2.20;;
46348;SDS011;32057;47.830;19.046;2022-12-07T13:11:32;3.35;;;2.38;;
46348;SDS011;32057;47.830;19.046;2022-12-07T13:17:09;3.03;;;2.55;;
46348;SDS011;32057;47.830;19.046;2022-12-07T13:19:54;2.63;;;2.10;;
46348;SDS011;32057;47.830;19.046;2022-12-07T13:25:11;4.75;;;3.10;;
46348;SDS011;32057;47.830;19.046;2022-12-07T13:28:02;2.65;;;2.00;;
46348;SDS011;32057;47.830;19.046;2022-12-07T13:30:39;4.25;;;2.30;;
46348;SDS011;32057;47.830;19.046;2022-12-07T13:33:13;3.45;;;2.85;;
46348;SDS011;32057;47.830;19.046;2022-12-07T13:35:42;2.25;;;2.05;;
46348;SDS011;32057;47.830;19.046;2022-12-07T13:38:25;2.22;;;2.03;;
46348;SDS011;32057;47.830;19.046;2022-12-07T13:43:46;3.67;;;2.45;;
46348;SDS011;32057;47.830;19.046;2022-12-07T13:46:14;3.08;;;2.50;;
46348;SDS011;32057;47.830;19.046;2022-12-07T13:48:46;3.17;;;2.00;;
46348;SDS011;32057;47.830;19.046;2022-12-07T13:51:20;2.92;;;2.00;;
46348;SDS011;32057;47.830;19.046;2022-12-07T13:53:52;3.35;;;2.63;;
46348;SDS011;32057;47.830;19.046;2022-12-07T13:56:34;2.38;;;2.05;;
46348;SDS011;32057;47.830;19.046;2022-12-07T13:59:01;2.47;;;1.98;;
46348;SDS011;32057;47.830;19.046;2022-12-07T14:01:28;2.75;;;2.42;;
46348;SDS011;32057;47.830;19.046;2022-12-07T14:03:56;1.77;;;1.67;;
46348;SDS011;32057;47.830;19.046;2022-12-07T14:06:59;4.07;;;3.17;;
46348;SDS011;32057;47.830;19.046;2022-12-07T14:09:27;5.93;;;3.90;;
46348;SDS011;32057;47.830;19.046;2022-12-07T14:11:53;3.40;;;2.88;;
46348;SDS011;32057;47.830;19.046;2022-12-07T14:14:22;3.17;;;2.88;;
46348;SDS011;32057;47.830;19.046;2022-12-07T14:24:50;3.38;;;2.85;;
46348;SDS011;32057;47.830;19.046;2022-12-07T14:27:20;4.03;;;2.95;;
46348;SDS011;32057;47.830;19.046;2022-12-07T14:29:47;3.35;;;2.95;;
46348;SDS011;32057;47.830;19.046;2022-12-07T14:32:17;4.78;;;3.58;;
46348;SDS011;32057;47.830;19.046;2022-12-07T14:37:21;8.10;;;3.17;;
46348;SDS011;32057;47.830;19.046;2022-12-07T14:39:46;4.88;;;3.58;;
46348;SDS011;32057;47.830;19.046;2022-12-07T14:42:12;5.70;;;4.68;;
46348;SDS011;32057;47.830;19.046;2022-12-07T14:44:37;5.75;;;3.33;;
46348;SDS011;32057;47.830;19.046;2022-12-07T14:47:03;4.22;;;3.45;;
46348;SDS011;32057;47.830;19.046;2022-12-07T14:49:28;3.92;;;3.08;;
46348;SDS011;32057;47.830;19.046;2022-12-07T14:51:53;2.67;;;2.47;;
46348;SDS011;32057;47.830;19.046;2022-12-07T14:54:19;3.83;;;3.47;;
46348;SDS011;32057;47.830;19.046;2022-12-07T14:56:48;3.55;;;2.58;;
46348;SDS011;32057;47.830;19.046;2022-12-07T14:59:16;2.63;;;2.42;;
46348;SDS011;32057;47.830;19.046;2022-12-07T15:01:42;3.20;;;2.90;;
46348;SDS011;32057;47.830;19.046;2022-12-07T15:04:08;4.43;;;3.45;;
46348;SDS011;32057;47.830;19.046;2022-12-07T15:06:34;6.90;;;4.35;;
46348;SDS011;32057;47.830;19.046;2022-12-07T15:08:59;3.85;;;3.38;;
46348;SDS011;32057;47.830;19.046;2022-12-07T15:11:25;4.20;;;3.38;;
46348;SDS011;32057;47.830;19.046;2022-12-07T15:13:51;3.88;;;2.80;;
46348;SDS011;32057;47.830;19.046;2022-12-07T15:16:36;4.55;;;3.70;;
46348;SDS011;32057;47.830;19.046;2022-12-07T15:19:05;3.65;;;3.13;;
46348;SDS011;32057;47.830;19.046;2022-12-07T15:21:31;5.32;;;3.53;;
46348;SDS011;32057;47.830;19.046;2022-12-07T15:23:56;3.47;;;3.05;;
46348;SDS011;32057;47.830;19.046;2022-12-07T15:26:21;4.60;;;3.45;;
46348;SDS011;32057;47.830;19.046;2022-12-07T15:28:47;3.05;;;2.17;;
46348;SDS011;32057;47.830;19.046;2022-12-07T15:31:13;3.63;;;2.55;;
46348;SDS011;32057;47.830;19.046;2022-12-07T15:33:40;2.95;;;2.20;;
46348;SDS011;32057;47.830;19.046;2022-12-07T15:36:06;2.13;;;1.88;;
46348;SDS011;32057;47.830;19.046;2022-12-07T15:38:32;7.18;;;4.70;;
46348;SDS011;32057;47.830;19.046;2022-12-07T15:40:57;4.07;;;2.40;;
46348;SDS011;32057;47.830;19.046;2022-12-07T15:43:27;7.25;;;3.65;;
46348;SDS011;32057;47.830;19.046;2022-12-07T15:46:11;4.75;;;3.33;;
46348;SDS011;32057;47.830;19.046;2022-12-07T15:48:42;3.88;;;3.03;;
46348;SDS011;32057;47.830;19.046;2022-12-07T15:51:10;7.53;;;3.10;;
46348;SDS011;32057;47.830;19.046;2022-12-07T15:53:36;2.67;;;2.08;;
46348;SDS011;32057;47.830;19.046;2022-12-07T15:56:01;2.97;;;2.67;;
46348;SDS011;32057;47.830;19.046;2022-12-07T15:58:31;2.60;;;2.17;;
46348;SDS011;32057;47.830;19.046;2022-12-07T16:00:57;3.25;;;2.55;;
46348;SDS011;32057;47.830;19.046;2022-12-07T16:03:22;3.13;;;2.65;;
46348;SDS011;32057;47.830;19.046;2022-12-07T16:05:51;3.13;;;2.78;;
46348;SDS011;32057;47.830;19.046;2022-12-07T16:08:18;6.32;;;2.20;;
46348;SDS011;32057;47.830;19.046;2022-12-07T16:10:43;2.83;;;2.60;;
46348;SDS011;32057;47.830;19.046;2022-12-07T16:13:09;2.95;;;2.20;;
46348;SDS011;32057;47.830;19.046;2022-12-07T16:15:42;3.25;;;2.55;;
46348;SDS011;32057;47.830;19.046;2022-12-07T16:18:08;3.17;;;2.17;;
46348;SDS011;32057;47.830;19.046;2022-12-07T16:20:33;2.80;;;2.15;;
46348;SDS011;32057;47.830;19.046;2022-12-07T16:22:59;3.00;;;2.17;;
46348;SDS011;32057;47.830;19.046;2022-12-07T16:25:24;2.97;;;2.53;;
46348;SDS011;32057;47.830;19.046;2022-12-07T16:27:53;4.88;;;2.88;;
46348;SDS011;32057;47.830;19.046;2022-12-07T16:30:19;5.32;;;2.05;;
46348;SDS011;32057;47.830;19.046;2022-12-07T16:32:44;5.00;;;3.30;;
46348;SDS011;32057;47.830;19.046;2022-12-07T16:35:10;2.70;;;2.22;;
46348;SDS011;32057;47.830;19.046;2022-12-07T16:37:36;3.28;;;2.28;;
46348;SDS011;32057;47.830;19.046;2022-12-07T16:40:02;4.15;;;2.28;;
46348;SDS011;32057;47.830;19.046;2022-12-07T16:42:31;4.03;;;2.40;;
46348;SDS011;32057;47.830;19.046;2022-12-07T16:44:57;2.63;;;1.52;;
46348;SDS011;32057;47.830;19.046;2022-12-07T16:47:23;1.73;;;1.63;;
46348;SDS011;32057;47.830;19.046;2022-12-07T16:49:48;3.63;;;2.38;;
46348;SDS011;32057;47.830;19.046;2022-12-07T16:52:14;2.38;;;1.80;;
46348;SDS011;32057;47.830;19.046;2022-12-07T16:54:39;6.10;;;2.20;;
46348;SDS011;32057;47.830;19.046;2022-12-07T16:57:04;2.50;;;1.77;;